Oldtown, Idaho
Current Conditions -  °F | °C
As of 6:35 AM on Tuesday 21 Oct 2014 (Local Time) from KSZT Reporting Station
Drizzle Drizzle  
Wind Chill: 50°   Ceiling: 2100
Heat Index: 50°   Visibility: 10mi
Dew Point: 45°   Wind: 6mph
Humidity: 82%   Direction: 220°SW
Pressure: 29.84"   Gusts: NA
Location:  48.18°N, 117.04°W
Report Text: KSZT 211335Z AUTO 22005KT 10SM -DZ OVC021 10/07 A2984 RMK AO2
Loading
Personal Weather Stations






























Interactive Weather Map
Tropical Storm Tracking
New forecast layout! Learn more

10-Day Weather Forecast

Advertisements
Track Severe Weather on mobile